createdAt,value
2018-11-29T00:00:38.787Z,64.70
2018-11-29T00:03:08.376Z,65.20
2018-11-29T00:05:36.597Z,64.60
2018-11-29T00:08:05.770Z,64.10
2018-11-29T00:10:34.119Z,63.70
2018-11-29T00:13:02.753Z,64.10
2018-11-29T00:15:30.972Z,64.80
2018-11-29T00:17:59.063Z,64.30
2018-11-29T00:20:27.440Z,63.10
2018-11-29T00:22:55.589Z,62.40
2018-11-29T00:25:23.714Z,62.30
2018-11-29T00:27:51.974Z,62.30
2018-11-29T00:30:22.072Z,62.50
2018-11-29T00:32:51.491Z,62.30
2018-11-29T00:35:19.715Z,62.70
2018-11-29T00:37:47.982Z,62.50
2018-11-29T00:40:22.188Z,63.00
2018-11-29T00:42:50.437Z,63.20
2018-11-29T00:45:20.400Z,63.40
2018-11-29T00:47:48.806Z,63.20
2018-11-29T00:50:18.296Z,63.20
2018-11-29T00:52:48.872Z,64.20
2018-11-29T00:55:21.754Z,65.00
2018-11-29T00:57:50.585Z,65.40
2018-11-29T01:00:23.198Z,65.70
2018-11-29T01:02:51.388Z,66.70
2018-11-29T01:05:19.651Z,66.80
2018-11-29T01:07:47.937Z,67.30
2018-11-29T01:10:17.726Z,68.20
2018-11-29T01:12:46.848Z,68.30
2018-11-29T01:15:19.421Z,66.70
2018-11-29T01:17:48.840Z,67.80
2018-11-29T01:20:18.768Z,67.60
2018-11-29T01:22:47.026Z,67.20
2018-11-29T01:25:15.630Z,67.60
2018-11-29T01:27:47.378Z,67.50
2018-11-29T01:30:16.951Z,67.40
2018-11-29T01:32:45.046Z,67.80
2018-11-29T01:35:14.835Z,66.80
2018-11-29T01:37:43.000Z,67.00
2018-11-29T01:40:16.542Z,67.00
2018-11-29T01:42:48.106Z,66.30
2018-11-29T01:45:16.262Z,66.50
2018-11-29T01:47:44.342Z,66.70
2018-11-29T01:50:12.628Z,66.50
2018-11-29T01:52:40.791Z,66.20
2018-11-29T01:55:09.400Z,67.00
2018-11-29T01:57:37.602Z,67.30
2018-11-29T02:00:10.337Z,66.80
2018-11-29T02:02:38.395Z,66.70
2018-11-29T02:05:09.003Z,67.00
2018-11-29T02:07:37.170Z,66.70
2018-11-29T02:10:15.224Z,66.60
2018-11-29T02:12:43.394Z,65.80
2018-11-29T02:15:12.185Z,66.00
2018-11-29T02:17:40.422Z,65.80
2018-11-29T02:20:11.040Z,66.10
2018-11-29T02:22:39.193Z,65.80
2018-11-29T02:25:08.114Z,65.90
2018-11-29T02:27:36.122Z,65.50
2018-11-29T02:30:09.552Z,65.20
2018-11-29T02:32:37.644Z,64.80
2018-11-29T02:35:06.421Z,65.50
2018-11-29T02:37:34.442Z,65.60
2018-11-29T02:40:02.682Z,65.80
2018-11-29T02:42:30.830Z,65.90
2018-11-29T02:44:59.023Z,65.40
2018-11-29T02:47:27.059Z,65.20
2018-11-29T02:49:55.395Z,65.90
2018-11-29T02:52:23.482Z,65.40
2018-11-29T02:54:51.587Z,65.00
2018-11-29T02:57:20.051Z,65.10
2018-11-29T02:59:48.190Z,65.00
2018-11-29T03:02:16.400Z,65.00
2018-11-29T03:04:44.693Z,65.80
2018-11-29T03:07:12.942Z,65.80
2018-11-29T03:09:41.101Z,65.80
2018-11-29T03:12:09.265Z,65.80
2018-11-29T03:14:37.359Z,65.70
2018-11-29T03:17:05.929Z,64.90
2018-11-29T03:19:34.103Z,65.70
2018-11-29T03:22:02.309Z,66.10
2018-11-29T03:24:30.399Z,65.30
2018-11-29T03:26:59.147Z,65.70
2018-11-29T03:29:27.208Z,65.60
2018-11-29T03:31:55.331Z,66.10
2018-11-29T03:34:23.528Z,65.70
2018-11-29T03:36:52.409Z,65.10
2018-11-29T03:39:20.534Z,65.60
2018-11-29T03:41:48.886Z,64.90
2018-11-29T03:44:17.095Z,64.40
2018-11-29T03:46:45.907Z,63.80
2018-11-29T03:49:14.038Z,62.70
2018-11-29T03:51:42.141Z,61.70
2018-11-29T03:54:10.262Z,61.00
2018-11-29T03:56:38.384Z,59.90
2018-11-29T03:59:06.755Z,59.70
2018-11-29T04:01:34.827Z,59.30
2018-11-29T04:04:03.019Z,59.10
2018-11-29T04:06:31.121Z,59.00
2018-11-29T04:08:59.182Z,58.60
2018-11-29T04:11:27.424Z,59.20
2018-11-29T04:13:55.482Z,58.60
2018-11-29T04:16:23.590Z,58.50
2018-11-29T04:18:51.787Z,59.30
2018-11-29T04:21:19.874Z,58.50
2018-11-29T04:23:48.219Z,59.20
2018-11-29T04:26:16.358Z,59.50
2018-11-29T04:28:45.335Z,59.90
2018-11-29T04:31:13.406Z,60.00
2018-11-29T04:33:41.522Z,60.40
2018-11-29T04:36:09.718Z,60.90
2018-11-29T04:38:38.287Z,60.10
2018-11-29T04:41:06.327Z,59.10
2018-11-29T04:43:34.466Z,58.30
2018-11-29T04:46:48.738Z,57.90
2018-11-29T04:49:16.865Z,58.00
2018-11-29T04:51:49.236Z,58.60
2018-11-29T04:54:17.282Z,58.20
2018-11-29T04:56:45.563Z,57.70
2018-11-29T04:59:13.775Z,56.80
2018-11-29T05:01:42.674Z,56.80
2018-11-29T05:04:10.945Z,56.30
2018-11-29T05:06:39.106Z,55.50
2018-11-29T05:09:13.272Z,55.90
2018-11-29T05:11:41.439Z,55.10
2018-11-29T05:14:09.766Z,55.00
2018-11-29T05:16:44.813Z,55.00
2018-11-29T05:19:19.601Z,54.80
2018-11-29T05:21:47.799Z,53.90
2018-11-29T05:24:16.246Z,54.00
2018-11-29T05:26:44.455Z,53.60
2018-11-29T05:29:12.711Z,52.70
2018-11-29T05:31:40.970Z,53.20
2018-11-29T05:34:09.293Z,53.40
2018-11-29T05:36:37.843Z,53.50
2018-11-29T05:39:07.294Z,52.70
2018-11-29T05:41:35.933Z,52.20
2018-11-29T05:44:04.296Z,52.60
2018-11-29T05:46:32.734Z,51.60
2018-11-29T05:49:01.096Z,51.50
2018-11-29T05:51:29.360Z,50.10
2018-11-29T05:53:57.574Z,51.00
2018-11-29T05:56:25.814Z,52.60
2018-11-29T05:58:53.952Z,56.30
2018-11-29T06:01:26.578Z,58.90
2018-11-29T06:03:54.860Z,60.10
2018-11-29T06:06:23.143Z,60.60
2018-11-29T06:08:51.363Z,61.90
2018-11-29T06:11:19.598Z,61.50
2018-11-29T06:13:47.878Z,62.00
2018-11-29T06:16:16.166Z,62.50
2018-11-29T06:18:44.400Z,62.50
2018-11-29T06:21:13.626Z,62.00
2018-11-29T06:23:41.979Z,62.50
2018-11-29T06:26:10.435Z,62.60
2018-11-29T06:28:38.943Z,62.80
2018-11-29T06:31:07.447Z,63.70
2018-11-29T06:33:35.853Z,63.70
2018-11-29T06:36:04.592Z,63.70
2018-11-29T06:38:34.109Z,63.30
2018-11-29T06:41:02.447Z,63.90
2018-11-29T06:43:31.043Z,63.40
2018-11-29T06:45:59.412Z,63.80
2018-11-29T06:48:27.623Z,64.60
2018-11-29T06:50:55.703Z,65.60
2018-11-29T06:53:29.563Z,66.80
2018-11-29T06:55:57.642Z,67.70
2018-11-29T06:58:25.758Z,68.10
2018-11-29T07:00:53.907Z,68.70
2018-11-29T07:03:22.077Z,68.80
2018-11-29T07:05:50.263Z,69.40
2018-11-29T07:08:18.741Z,69.30
2018-11-29T07:10:46.930Z,69.40
2018-11-29T07:13:15.265Z,69.50
2018-11-29T07:18:18.563Z,69.90
2018-11-29T07:21:03.959Z,70.30
2018-11-29T07:23:32.277Z,70.70
2018-11-29T07:26:01.200Z,70.80
2018-11-29T07:28:34.250Z,70.90
2018-11-29T07:31:02.583Z,71.10
2018-11-29T07:33:30.909Z,70.70
2018-11-29T07:35:59.103Z,70.70
2018-11-29T07:38:27.306Z,70.20
2018-11-29T07:40:55.637Z,70.40
2018-11-29T07:43:23.983Z,70.70
2018-11-29T07:45:52.192Z,71.20
2018-11-29T07:48:20.635Z,69.90
2018-11-29T07:50:48.859Z,69.90
2018-11-29T07:53:17.223Z,70.00
2018-11-29T07:55:45.483Z,69.80
2018-11-29T07:58:13.990Z,70.00
2018-11-29T08:00:42.285Z,69.70
2018-11-29T08:03:10.580Z,69.50
2018-11-29T08:05:39.103Z,70.00
2018-11-29T08:08:07.301Z,70.20
2018-11-29T08:10:35.531Z,69.00
2018-11-29T08:13:04.097Z,69.10
2018-11-29T08:15:32.633Z,69.70
2018-11-29T08:18:00.809Z,69.10
2018-11-29T08:20:29.126Z,68.80
2018-11-29T08:22:57.362Z,68.30
2018-11-29T08:25:25.889Z,68.40
2018-11-29T08:27:54.225Z,67.90
2018-11-29T08:30:22.711Z,67.90
2018-11-29T08:32:50.974Z,68.60
2018-11-29T08:35:19.289Z,67.20
2018-11-29T08:37:47.631Z,67.60
2018-11-29T08:40:21.562Z,67.30
2018-11-29T08:42:49.864Z,67.10
2018-11-29T08:45:18.139Z,67.10
2018-11-29T08:47:46.754Z,67.30
2018-11-29T08:50:15.439Z,68.20
2018-11-29T08:52:45.212Z,67.40
2018-11-29T08:55:17.321Z,67.80
2018-11-29T08:57:46.581Z,67.20
2018-11-29T09:00:16.506Z,66.90
2018-11-29T09:02:44.896Z,67.00
2018-11-29T09:05:13.891Z,67.10
2018-11-29T09:07:43.636Z,67.20
2018-11-29T09:10:20.298Z,67.20
2018-11-29T09:12:48.793Z,68.50
2018-11-29T09:15:17.499Z,67.90
2018-11-29T09:17:45.979Z,68.70
2018-11-29T09:20:20.349Z,67.20
2018-11-29T09:22:48.718Z,67.00
2018-11-29T09:25:21.900Z,65.90
2018-11-29T09:27:50.480Z,65.40
2018-11-29T09:30:22.669Z,64.70
2018-11-29T09:32:52.603Z,64.50
2018-11-29T09:35:23.825Z,64.30
2018-11-29T09:37:52.320Z,64.20
2018-11-29T09:40:20.856Z,64.00
2018-11-29T09:42:49.190Z,66.30
2018-11-29T09:45:19.286Z,65.40
2018-11-29T09:47:49.552Z,63.00
2018-11-29T09:50:18.197Z,61.80
2018-11-29T09:52:46.821Z,60.70
2018-11-29T09:55:20.049Z,59.50
2018-11-29T09:57:49.880Z,59.70
2018-11-29T10:00:28.582Z,59.40
2018-11-29T10:03:06.238Z,59.30
2018-11-29T10:05:34.914Z,58.90
2018-11-29T10:08:03.334Z,57.80
2018-11-29T10:10:32.337Z,57.70
2018-11-29T10:13:01.243Z,59.00
2018-11-29T10:15:29.890Z,57.40
2018-11-29T10:17:58.290Z,57.00
2018-11-29T10:20:27.552Z,56.70
2018-11-29T10:22:56.297Z,57.00
2018-11-29T10:25:24.772Z,56.30
2018-11-29T10:28:01.693Z,56.70
2018-11-29T10:30:34.614Z,57.30
2018-11-29T10:33:02.964Z,57.20
2018-11-29T10:35:31.926Z,57.10
2018-11-29T10:38:00.393Z,57.60
2018-11-29T10:40:29.036Z,57.80
2018-11-29T10:42:57.860Z,57.40
2018-11-29T10:45:25.984Z,58.40
2018-11-29T10:47:55.270Z,57.60
2018-11-29T10:50:23.529Z,57.80
2018-11-29T10:52:51.907Z,57.90
2018-11-29T10:55:20.804Z,57.10
2018-11-29T10:57:49.626Z,57.50
2018-11-29T11:00:30.574Z,57.10
2018-11-29T11:03:21.643Z,58.10
2018-11-29T11:05:51.664Z,57.80
2018-11-29T11:08:20.528Z,57.30
2018-11-29T11:10:48.887Z,57.70
2018-11-29T11:13:17.174Z,57.80
2018-11-29T11:15:45.461Z,58.40
2018-11-29T11:18:15.164Z,57.30
2018-11-29T11:20:43.994Z,57.10
2018-11-29T11:23:12.713Z,58.10
2018-11-29T11:25:41.335Z,57.10
2018-11-29T11:28:10.254Z,57.80
2018-11-29T11:30:42.330Z,58.40
2018-11-29T11:33:10.796Z,58.20
2018-11-29T11:35:39.216Z,57.30
2018-11-29T11:38:07.432Z,57.60
2018-11-29T11:40:35.795Z,58.10
2018-11-29T11:43:05.226Z,57.60
2018-11-29T11:45:32.711Z,57.30
2018-11-29T11:48:03.388Z,57.50
2018-11-29T11:50:29.691Z,57.60
2018-11-29T11:52:57.935Z,57.50
2018-11-29T11:55:29.969Z,57.40
2018-11-29T11:57:54.657Z,57.90
2018-11-29T12:00:27.449Z,57.40
2018-11-29T12:03:08.289Z,57.40
2018-11-29T12:05:37.294Z,56.90
2018-11-29T12:08:06.044Z,56.80
2018-11-29T12:10:34.627Z,56.90
2018-11-29T12:13:03.128Z,57.90
2018-11-29T12:15:32.763Z,57.50
2018-11-29T12:18:01.164Z,57.60
2018-11-29T12:20:29.563Z,57.20
2018-11-29T12:22:57.935Z,57.60
2018-11-29T12:25:26.744Z,57.50
2018-11-29T12:27:55.374Z,57.00
2018-11-29T12:30:28.816Z,56.90
2018-11-29T12:33:01.015Z,57.30
2018-11-29T12:35:29.518Z,56.60
2018-11-29T12:37:57.917Z,57.10
2018-11-29T12:40:26.477Z,57.00
2018-11-29T12:42:54.912Z,57.60
2018-11-29T12:45:23.802Z,57.60
2018-11-29T12:47:52.136Z,57.10
2018-11-29T12:50:22.806Z,57.40
2018-11-29T12:52:51.131Z,57.10
2018-11-29T12:55:22.047Z,56.80
2018-11-29T12:58:04.446Z,56.70
2018-11-29T13:00:20.518Z,56.50
2018-11-29T13:02:53.348Z,56.10
2018-11-29T13:05:21.897Z,56.30
2018-11-29T13:07:50.307Z,56.60
2018-11-29T13:10:21.059Z,57.10
2018-11-29T13:12:49.552Z,57.10
2018-11-29T13:15:21.218Z,56.90
2018-11-29T13:17:49.489Z,57.60
2018-11-29T13:20:17.874Z,57.60
2018-11-29T13:22:47.083Z,57.60
2018-11-29T13:25:17.193Z,57.60
2018-11-29T13:27:45.639Z,57.60
2018-11-29T13:30:17.420Z,57.60
2018-11-29T13:32:46.248Z,57.60
2018-11-29T13:35:18.646Z,57.40
2018-11-29T13:37:53.796Z,57.10
2018-11-29T13:40:22.123Z,57.60
2018-11-29T13:42:50.554Z,57.60
2018-11-29T13:45:18.879Z,57.90
2018-11-29T13:47:47.198Z,58.10
2018-11-29T13:50:16.593Z,58.40
2018-11-29T13:52:45.340Z,58.80
2018-11-29T13:55:15.553Z,58.70
2018-11-29T13:57:46.601Z,59.30
2018-11-29T14:00:19.539Z,58.80
2018-11-29T14:02:53.091Z,58.60
2018-11-29T14:05:21.334Z,58.40
2018-11-29T14:07:49.691Z,57.60
2018-11-29T14:10:20.947Z,58.10
2018-11-29T14:12:52.352Z,58.60
2018-11-29T14:15:24.092Z,58.50
2018-11-29T14:17:52.471Z,58.50
2018-11-29T14:20:20.665Z,58.70
2018-11-29T14:22:48.825Z,59.00
2018-11-29T14:25:17.462Z,58.80
2018-11-29T14:27:48.829Z,58.80
2018-11-29T14:30:25.419Z,58.70
2018-11-29T14:32:55.063Z,58.80
2018-11-29T14:35:23.264Z,59.30
2018-11-29T14:37:51.437Z,59.20
2018-11-29T14:40:22.533Z,60.00
2018-11-29T14:42:50.845Z,60.20
2018-11-29T14:45:22.644Z,60.60
2018-11-29T14:47:51.602Z,60.70
2018-11-29T14:50:31.917Z,61.40
2018-11-29T14:53:01.104Z,61.40
2018-11-29T14:55:29.381Z,61.90
2018-11-29T14:57:57.754Z,61.10
2018-11-29T15:00:25.932Z,61.50
2018-11-29T15:02:54.852Z,61.00
2018-11-29T15:05:27.110Z,61.10
2018-11-29T15:07:55.503Z,60.40
2018-11-29T15:10:23.861Z,59.40
2018-11-29T15:12:52.444Z,58.50
2018-11-29T15:15:20.912Z,58.80
2018-11-29T15:17:50.725Z,58.50
2018-11-29T15:20:32.498Z,57.80
2018-11-29T15:23:00.838Z,57.30
2018-11-29T15:25:29.220Z,55.50
2018-11-29T15:27:57.669Z,55.40
2018-11-29T15:30:25.894Z,55.30
2018-11-29T15:32:54.157Z,53.70
2018-11-29T15:35:22.717Z,52.70
2018-11-29T15:37:51.161Z,52.80
2018-11-29T15:40:19.660Z,53.10
2018-11-29T15:42:47.925Z,52.30
2018-11-29T15:45:25.331Z,51.80
2018-11-29T15:47:53.570Z,51.80
2018-11-29T15:50:21.916Z,51.30
2018-11-29T15:52:50.166Z,51.30
2018-11-29T15:55:20.101Z,51.90
2018-11-29T15:57:50.392Z,51.30
2018-11-29T16:00:21.334Z,51.00
2018-11-29T16:02:50.392Z,51.10
2018-11-29T16:05:18.950Z,51.80
2018-11-29T16:07:47.394Z,50.60
2018-11-29T16:10:18.662Z,50.30
2018-11-29T16:12:53.589Z,50.60
2018-11-29T16:15:22.256Z,50.70
2018-11-29T16:17:51.862Z,50.80
2018-11-29T16:20:29.745Z,50.70
2018-11-29T16:22:58.136Z,50.80
2018-11-29T16:25:26.505Z,50.20
2018-11-29T16:27:55.058Z,50.50
2018-11-29T16:30:57.592Z,50.60
2018-11-29T16:33:34.681Z,50.50
2018-11-29T16:36:03.101Z,50.00
2018-11-29T16:38:31.504Z,49.60
2018-11-29T16:40:59.805Z,50.00
2018-11-29T16:43:28.093Z,50.20
2018-11-29T16:45:56.461Z,49.80
2018-11-29T16:48:31.497Z,49.80
2018-11-29T16:50:59.739Z,50.00
2018-11-29T16:53:27.971Z,49.50
2018-11-29T16:55:56.326Z,49.80
2018-11-29T16:58:28.695Z,49.60
2018-11-29T17:00:57.240Z,50.20
2018-11-29T17:03:25.675Z,49.90
2018-11-29T17:05:54.200Z,49.30
2018-11-29T17:08:22.722Z,48.80
2018-11-29T17:10:51.144Z,48.70
2018-11-29T17:13:19.776Z,49.30
2018-11-29T17:15:48.122Z,48.50
2018-11-29T17:18:16.552Z,48.40
2018-11-29T17:20:44.908Z,48.20
2018-11-29T17:23:13.394Z,48.80
2018-11-29T17:25:43.312Z,49.00
2018-11-29T17:28:11.783Z,48.10
2018-11-29T17:30:40.321Z,47.50
2018-11-29T17:33:09.563Z,48.20
2018-11-29T17:35:37.950Z,48.50
2018-11-29T17:38:06.917Z,48.10
2018-11-29T17:40:36.737Z,48.00
2018-11-29T17:43:05.717Z,48.00
2018-11-29T17:45:34.030Z,47.40
2018-11-29T17:48:10.901Z,47.50
2018-11-29T17:50:40.870Z,47.00
2018-11-29T17:53:09.397Z,47.00
2018-11-29T17:55:38.078Z,46.00
2018-11-29T17:58:12.488Z,47.20
2018-11-29T18:00:42.004Z,46.90
2018-11-29T18:03:10.690Z,46.80
2018-11-29T18:05:39.245Z,45.50
2018-11-29T18:08:07.588Z,45.80
2018-11-29T18:10:38.749Z,46.70
2018-11-29T18:13:14.350Z,46.00
2018-11-29T18:15:43.106Z,46.40
2018-11-29T18:18:11.778Z,46.00
2018-11-29T18:20:40.234Z,46.60
2018-11-29T18:23:09.496Z,46.00
2018-11-29T18:25:37.863Z,46.50
2018-11-29T18:28:07.285Z,46.90
2018-11-29T18:30:35.668Z,46.50
2018-11-29T18:33:04.357Z,46.00
2018-11-29T18:35:32.854Z,46.60
2018-11-29T18:38:01.279Z,47.00
2018-11-29T18:40:29.693Z,46.80
2018-11-29T18:42:59.355Z,47.10
2018-11-29T18:45:28.106Z,46.30
2018-11-29T18:47:56.476Z,46.50
2018-11-29T18:50:25.917Z,46.90
2018-11-29T18:52:54.355Z,47.30
2018-11-29T18:55:25.936Z,47.50
2018-11-29T18:58:01.522Z,47.20
2018-11-29T19:00:32.068Z,47.30
2018-11-29T19:03:00.440Z,46.50
2018-11-29T19:05:29.010Z,46.80
2018-11-29T19:07:57.357Z,46.50
2018-11-29T19:10:25.908Z,47.30
2018-11-29T19:13:14.220Z,47.00
2018-11-29T19:15:42.543Z,47.20
2018-11-29T19:18:11.101Z,47.10
2018-11-29T19:20:39.496Z,47.20
2018-11-29T19:23:07.983Z,47.80
2018-11-29T19:25:36.566Z,47.70
2018-11-29T19:28:06.678Z,47.80
2018-11-29T19:30:35.339Z,47.50
2018-11-29T19:33:17.382Z,48.00
2018-11-29T19:35:43.099Z,47.90
2018-11-29T19:38:11.501Z,48.60
2018-11-29T19:40:40.057Z,47.90
2018-11-29T19:43:08.660Z,47.90
2018-11-29T19:45:37.147Z,48.40
2018-11-29T19:48:08.335Z,48.70
2018-11-29T19:50:36.677Z,48.70
2018-11-29T19:53:12.170Z,49.00
2018-11-29T19:55:40.722Z,48.70
2018-11-29T19:58:09.138Z,49.00
2018-11-29T20:00:37.892Z,49.20
2018-11-29T20:03:07.030Z,48.90
2018-11-29T20:05:35.697Z,47.90
2018-11-29T20:08:05.431Z,48.80
2018-11-29T20:10:34.380Z,49.40
2018-11-29T20:13:04.964Z,49.30
2018-11-29T20:15:39.381Z,49.10
2018-11-29T20:18:09.951Z,48.60
2018-11-29T20:20:38.494Z,49.10
2018-11-29T20:23:08.648Z,48.50
2018-11-29T20:25:37.195Z,49.70
2018-11-29T20:28:06.150Z,50.00
2018-11-29T20:30:35.192Z,49.60
2018-11-29T20:33:03.917Z,49.30
2018-11-29T20:35:32.318Z,50.30
2018-11-29T20:38:00.881Z,50.00
2018-11-29T20:40:33.515Z,49.50
2018-11-29T20:43:02.167Z,49.60
2018-11-29T20:45:35.779Z,49.40
2018-11-29T20:48:16.942Z,49.00
2018-11-29T20:50:45.384Z,48.40
2018-11-29T20:53:19.368Z,48.90
2018-11-29T20:55:47.869Z,48.60
2018-11-29T20:58:16.451Z,48.70
2018-11-29T21:00:44.797Z,48.20
2018-11-29T21:03:13.226Z,48.50
2018-11-29T21:05:42.641Z,48.60
2018-11-29T21:08:11.956Z,48.00
2018-11-29T21:10:40.591Z,48.10
2018-11-29T21:13:09.018Z,47.60
2018-11-29T21:15:39.754Z,48.20
2018-11-29T21:18:13.671Z,48.30
2018-11-29T21:20:42.935Z,48.30
2018-11-29T21:23:15.226Z,47.80
2018-11-29T21:25:49.183Z,48.40
2018-11-29T21:28:17.482Z,48.20
2018-11-29T21:30:45.824Z,48.40
2018-11-29T21:33:14.119Z,48.40
2018-11-29T21:35:42.525Z,48.40
2018-11-29T21:38:15.720Z,48.20
2018-11-29T21:41:03.338Z,48.10
2018-11-29T21:43:31.654Z,48.40
2018-11-29T21:46:00.018Z,48.30
2018-11-29T21:48:28.430Z,48.90
2018-11-29T21:50:56.767Z,48.80
2018-11-29T21:53:25.142Z,48.40
2018-11-29T21:55:53.476Z,48.40
2018-11-29T21:58:21.807Z,48.80
2018-11-29T22:00:50.083Z,49.00
2018-11-29T22:03:18.458Z,48.60
2018-11-29T22:05:46.670Z,48.90
2018-11-29T22:08:14.983Z,47.80
2018-11-29T22:10:43.255Z,48.30
2018-11-29T22:13:11.478Z,48.30
2018-11-29T22:15:39.709Z,48.70
2018-11-29T22:18:18.795Z,48.30
2018-11-29T22:20:52.210Z,48.20
2018-11-29T22:23:20.519Z,48.10
2018-11-29T22:25:48.753Z,49.20
2018-11-29T22:28:17.133Z,49.40
2018-11-29T22:30:45.545Z,49.10
2018-11-29T22:33:13.866Z,49.40
2018-11-29T22:35:42.209Z,49.10
2018-11-29T22:38:10.410Z,48.30
2018-11-29T22:40:38.806Z,48.30
2018-11-29T22:43:07.051Z,49.50
2018-11-29T22:45:35.296Z,50.30
2018-11-29T22:48:03.569Z,50.30
2018-11-29T22:50:31.908Z,49.70
2018-11-29T22:53:00.167Z,50.40
2018-11-29T22:55:28.430Z,49.50
2018-11-29T22:57:56.744Z,50.20
2018-11-29T23:00:25.283Z,50.00
2018-11-29T23:02:53.549Z,50.40
2018-11-29T23:05:22.279Z,50.80
2018-11-29T23:07:50.464Z,50.20
2018-11-29T23:10:18.657Z,50.20
2018-11-29T23:12:46.880Z,50.70
2018-11-29T23:15:15.222Z,50.50
2018-11-29T23:17:43.387Z,50.30
2018-11-29T23:20:12.491Z,50.80
2018-11-29T23:22:40.971Z,50.90
2018-11-29T23:25:12.157Z,51.00
2018-11-29T23:27:40.525Z,51.20
2018-11-29T23:30:13.994Z,51.00
2018-11-29T23:32:42.841Z,51.10
2018-11-29T23:35:12.704Z,51.20
2018-11-29T23:37:40.923Z,51.30
2018-11-29T23:40:16.534Z,50.40
2018-11-29T23:42:45.272Z,50.10
2018-11-29T23:45:14.111Z,51.00
2018-11-29T23:47:42.470Z,51.70
2018-11-29T23:50:16.331Z,52.20
2018-11-29T23:52:44.906Z,52.60
2018-11-29T23:55:15.193Z,53.00
2018-11-29T23:57:43.466Z,53.70
